Time;durP1;ratioP1;P1;durP2;ratioP2;P2;SDS_P1;SDS_P2;PMS_P1;PMS_P2;Temp;Humidity;BMP_temperature;BMP_pressure;BME280_temperature;BME280_humidity;BME280_pressure;Samples;Min_cycle;Max_cycle;Signal;HPM_P1;HPM_P2
2022/07/11 00:00:05;;;;;;;;;;;;;;;14.32;93.50;98697.50;1728381;83;20170;-72
2022/07/11 00:02:32;;;;;;;;;;;;;;;14.26;93.44;98696.98;1727873;83;20310;-72
2022/07/11 00:04:58;;;;;;;;;;;;;;;14.19;93.63;98695.44;1728371;83;20449;-72
2022/07/11 00:07:26;;;;;;;;;;;;;;;14.13;94.15;98699.06;1728039;83;21134;-72
2022/07/11 00:09:52;;;;;;;;;;;;;;;14.11;94.94;98692.30;1728079;83;20127;-72
2022/07/11 00:12:26;;;;;;;;;;;;;;;14.09;95.06;98695.42;1728103;82;20083;-72
2022/07/11 00:14:48;;;;;;;;;;;;;;;14.08;95.28;98695.78;1727157;83;20191;-72
2022/07/11 00:17:16;;;;;;;;;;;;;;;14.03;95.46;98694.67;1707966;83;20430;-71
2022/07/11 00:19:43;;;;;;;;;;;;;;;13.99;96.02;98693.21;1728143;83;21116;-71
2022/07/11 00:22:09;;;;;;;;;;;;;;;13.96;96.49;98692.55;1728002;83;20111;-72
2022/07/11 00:24:35;;;;;;;;;;;;;;;13.97;97.00;98694.73;1728059;82;20107;-72
2022/07/11 00:27:04;;;;;;;;;;;;;;;13.98;97.02;98692.99;1728123;82;20122;-71
2022/07/11 00:29:31;;;;;;;;;;;;;;;13.97;96.78;98689.21;1727973;83;20128;-72
2022/07/11 00:31:58;;;;;;;;;;;;;;;13.93;96.87;98686.95;1728102;83;21101;-72
2022/07/11 00:34:25;;;;;;;;;;;;;;;13.87;97.26;98685.84;1728227;83;20202;-72
2022/07/11 00:36:51;;;;;;;;;;;;;;;13.81;98.04;98683.74;1728105;83;20119;-72
2022/07/11 00:39:17;;;;;;;;;;;;;;;13.79;98.34;98681.92;1728106;83;20427;-72
2022/07/11 00:41:43;;;;;;;;;;;;;;;13.77;98.74;98683.66;1733437;82;20146;-72
2022/07/11 00:44:12;;;;;;;;;;;;;;;13.75;99.16;98680.45;1733841;82;20118;-72
2022/07/11 00:46:39;;;;;;;;;;;;;;;13.72;99.19;98678.98;1733717;83;20083;-72
2022/07/11 00:49:06;;;;;;;;;;;;;;;13.69;99.58;98679.12;1733705;83;20147;-72
2022/07/11 00:51:32;;;;;;;;;;;;;;;13.66;99.66;98677.08;1733746;83;20082;-72
2022/07/11 00:53:59;;;;;;;;;;;;;;;13.63;99.97;98676.99;1691679;83;20437;-72
2022/07/11 00:56:29;;;;;;;;;;;;;;;13.59;100.00;98675.53;1734078;83;22180;-72
2022/07/11 00:58:56;;;;;;;;;;;;;;;13.59;100.00;98673.34;1733709;83;20095;-72
2022/07/11 01:01:22;;;;;;;;;;;;;;;13.57;100.00;98676.46;1733843;83;20094;-71
2022/07/11 01:03:48;;;;;;;;;;;;;;;13.56;100.00;98683.13;1733995;83;20162;-72
2022/07/11 01:06:15;;;;;;;;;;;;;;;13.54;100.00;98689.58;1715036;83;20153;-72
2022/07/11 01:08:41;;;;;;;;;;;;;;;13.51;100.00;98693.05;1734053;83;21105;-72
2022/07/11 01:11:18;;;;;;;;;;;;;;;13.47;100.00;98692.16;1733736;82;20102;-72
2022/07/11 01:13:45;;;;;;;;;;;;;;;13.46;100.00;98693.31;1733795;83;20453;-72
2022/07/11 01:16:19;;;;;;;;;;;;;;;13.44;100.00;98692.87;1733711;82;20150;-72
2022/07/11 01:18:48;;;;;;;;;;;;;;;13.40;100.00;98691.98;1715058;83;38004;-72
2022/07/11 01:21:29;;;;;;;;;;;;;;;13.37;100.00;98687.17;1733756;83;21820;-72
2022/07/11 01:23:58;;;;;;;;;;;;;;;13.34;100.00;98687.88;1733711;83;20149;-72
2022/07/11 01:26:25;;;;;;;;;;;;;;;13.30;100.00;98684.23;1733234;82;20099;-71
2022/07/11 01:28:51;;;;;;;;;;;;;;;13.27;100.00;98682.21;1733783;83;20280;-71
2022/07/11 01:31:18;;;;;;;;;;;;;;;13.23;100.00;98679.36;1733497;83;20449;-72
2022/07/11 01:33:45;;;;;;;;;;;;;;;13.21;100.00;98672.83;1733812;83;21144;-71
2022/07/11 01:36:12;;;;;;;;;;;;;;;13.19;100.00;98671.58;1733700;83;20177;-71
2022/07/11 01:38:39;;;;;;;;;;;;;;;13.17;100.00;98670.55;1733618;83;20082;-72
2022/07/11 01:41:06;;;;;;;;;;;;;;;13.14;100.00;98669.85;1745549;82;20199;-72
2022/07/11 01:43:34;;;;;;;;;;;;;;;13.13;100.00;98671.58;1754965;82;20083;-72
2022/07/11 01:46:00;;;;;;;;;;;;;;;13.10;100.00;98669.53;1754858;82;21496;-72
2022/07/11 01:48:28;;;;;;;;;;;;;;;13.07;100.00;98680.69;1754835;81;20106;-72
2022/07/11 01:50:54;;;;;;;;;;;;;;;13.05;100.00;98674.72;1754821;82;20118;-72
2022/07/11 01:53:21;;;;;;;;;;;;;;;13.03;100.00;98674.28;1754888;81;20171;-71
2022/07/11 01:55:47;;;;;;;;;;;;;;;13.04;100.00;98673.13;1755149;82;20087;-72
2022/07/11 01:58:13;;;;;;;;;;;;;;;13.05;100.00;98678.86;1755194;82;21169;-71
2022/07/11 02:00:40;;;;;;;;;;;;;;;13.02;100.00;98674.05;1754893;82;20111;-71
2022/07/11 02:03:06;;;;;;;;;;;;;;;13.00;100.00;98676.94;1755403;82;20122;-71
2022/07/11 02:05:33;;;;;;;;;;;;;;;12.97;100.00;98674.31;1755042;82;20418;-71
2022/07/11 02:08:13;;;;;;;;;;;;;;;12.96;100.00;98672.70;1755032;82;20175;-72
2022/07/11 02:10:43;;;;;;;;;;;;;;;12.96;100.00;98681.55;1755172;81;20445;-72
2022/07/11 02:13:10;;;;;;;;;;;;;;;12.95;100.00;98676.61;1754994;81;20472;-72
2022/07/11 02:15:37;;;;;;;;;;;;;;;12.96;100.00;98680.97;1755085;81;20095;-72
2022/07/11 02:18:06;;;;;;;;;;;;;;;12.96;100.00;98684.30;1755129;81;20643;-72
2022/07/11 02:20:32;;;;;;;;;;;;;;;12.95;100.00;98677.19;1755047;81;20119;-72
2022/07/11 02:22:58;;;;;;;;;;;;;;;12.95;100.00;98681.33;1755277;82;21050;-72
2022/07/11 02:25:25;;;;;;;;;;;;;;;12.95;100.00;98681.33;1754963;82;20118;-71
2022/07/11 02:27:51;;;;;;;;;;;;;;;12.94;100.00;98682.48;1755096;81;20153;-72
2022/07/11 02:30:17;;;;;;;;;;;;;;;12.93;100.00;98685.81;1755305;82;20457;-72
2022/07/11 02:32:43;;;;;;;;;;;;;;;12.94;100.00;98686.61;1755036;82;20118;-72
2022/07/11 02:35:10;;;;;;;;;;;;;;;12.95;100.00;98680.75;1755114;82;21766;-72
2022/07/11 02:37:36;;;;;;;;;;;;;;;12.97;100.00;98676.27;1755110;82;20111;-72
2022/07/11 02:40:04;;;;;;;;;;;;;;;12.98;100.00;98679.24;1755067;82;20158;-72
2022/07/11 02:42:31;;;;;;;;;;;;;;;12.99;100.00;98681.64;1754991;82;20083;-72
2022/07/11 02:44:57;;;;;;;;;;;;;;;12.99;100.00;98676.71;1755001;82;20119;-72
2022/07/11 02:47:24;;;;;;;;;;;;;;;13.00;100.00;98674.98;1754491;82;21828;-72
2022/07/11 02:49:50;;;;;;;;;;;;;;;13.00;100.00;98676.36;1754433;82;20095;-72
2022/07/11 02:52:17;;;;;;;;;;;;;;;13.03;100.00;98664.63;1754600;82;20083;-71
2022/07/11 02:54:43;;;;;;;;;;;;;;;13.05;100.00;98673.34;1754924;82;20194;-71
2022/07/11 02:57:10;;;;;;;;;;;;;;;13.07;100.00;98684.81;1755046;82;20095;-72
2022/07/11 02:59:37;;;;;;;;;;;;;;;13.10;100.00;98681.36;1755216;82;21093;-72
2022/07/11 03:02:04;;;;;;;;;;;;;;;13.12;100.00;98685.94;1755214;82;20153;-72
2022/07/11 03:04:33;;;;;;;;;;;;;;;13.15;100.00;98680.30;1754950;81;20138;-72
2022/07/11 03:06:59;;;;;;;;;;;;;;;13.17;100.00;98681.58;1754878;81;20429;-72
2022/07/11 03:09:26;;;;;;;;;;;;;;;13.18;100.00;98694.20;1755047;82;20098;-71
2022/07/11 03:11:53;;;;;;;;;;;;;;;13.21;100.00;98688.56;1755013;81;21108;-71
2022/07/11 03:14:21;;;;;;;;;;;;;;;13.31;100.00;98693.52;1754968;81;20138;-71
2022/07/11 03:16:47;;;;;;;;;;;;;;;13.44;100.00;98695.63;1754959;82;20147;-71
2022/07/11 03:19:14;;;;;;;;;;;;;;;13.55;100.00;98698.08;1754896;82;20134;-72
2022/07/11 03:21:40;;;;;;;;;;;;;;;13.68;100.00;98698.20;1755002;81;20465;-72
2022/07/11 03:24:07;;;;;;;;;;;;;;;13.81;100.00;98703.05;1755411;81;21112;-72
2022/07/11 03:26:34;;;;;;;;;;;;;;;13.90;100.00;98696.74;1754933;82;20110;-72
2022/07/11 03:29:02;;;;;;;;;;;;;;;13.95;100.00;98692.91;1755051;81;20082;-71
2022/07/11 03:31:29;;;;;;;;;;;;;;;13.98;100.00;98693.57;1755279;82;20075;-73
2022/07/11 03:33:56;;;;;;;;;;;;;;;14.01;100.00;98696.99;1755070;82;20421;-71
2022/07/11 03:36:22;;;;;;;;;;;;;;;14.08;100.00;98699.92;1729860;82;21092;-72
2022/07/11 03:38:48;;;;;;;;;;;;;;;14.14;100.00;98694.34;1754913;81;20131;-71
2022/07/11 03:41:14;;;;;;;;;;;;;;;14.22;100.00;98694.73;1745073;82;20119;-71
2022/07/11 03:43:41;;;;;;;;;;;;;;;14.30;100.00;98688.78;1728103;83;20123;-71
2022/07/11 03:46:07;;;;;;;;;;;;;;;14.39;100.00;98684.66;1728194;82;20131;-72
2022/07/11 03:48:34;;;;;;;;;;;;;;;14.46;100.00;98681.25;1728104;83;21547;-73
2022/07/11 03:51:00;;;;;;;;;;;;;;;14.50;100.00;98682.13;1728245;82;20437;-71
2022/07/11 03:53:27;;;;;;;;;;;;;;;14.56;100.00;98683.44;1725983;82;20087;-73
2022/07/11 03:55:53;;;;;;;;;;;;;;;14.62;100.00;98677.84;1721949;82;20154;-72
2022/07/11 03:58:19;;;;;;;;;;;;;;;14.67;100.00;98679.52;1706495;83;20424;-72
2022/07/11 04:00:47;;;;;;;;;;;;;;;14.71;100.00;98681.77;1699090;84;21089;-71
2022/07/11 04:03:13;;;;;;;;;;;;;;;14.76;100.00;98675.95;1698947;84;20085;-72
2022/07/11 04:05:40;;;;;;;;;;;;;;;14.82;100.00;98675.87;1699324;84;20073;-71
2022/07/11 04:08:06;;;;;;;;;;;;;;;14.86;98.99;98668.45;1699016;84;20436;-72
2022/07/11 04:10:32;;;;;;;;;;;;;;;14.91;99.08;98679.22;1699046;84;20110;-71
2022/07/11 04:12:59;;;;;;;;;;;;;;;14.95;97.67;98679.28;1701514;83;21038;-77
2022/07/11 04:15:25;;;;;;;;;;;;;;;14.94;97.57;98692.30;1712179;83;20084;-76
2022/07/11 04:17:51;;;;;;;;;;;;;;;14.95;97.75;98698.05;1715180;83;20119;-77
2022/07/11 04:20:18;;;;;;;;;;;;;;;14.93;97.03;98699.00;1725236;83;20083;-76
2022/07/11 04:22:44;;;;;;;;;;;;;;;14.89;96.74;98698.13;1728087;83;20123;-76
2022/07/11 04:25:10;;;;;;;;;;;;;;;14.87;96.73;98699.07;1728068;83;21123;-75
2022/07/11 04:27:37;;;;;;;;;;;;;;;14.85;96.52;98696.67;1728246;83;20102;-75
2022/07/11 04:30:04;;;;;;;;;;;;;;;14.84;96.43;98692.89;1727992;82;20118;-76
2022/07/11 04:32:30;;;;;;;;;;;;;;;14.82;96.07;98693.84;1728043;83;20399;-76
2022/07/11 04:34:56;;;;;;;;;;;;;;;14.83;96.49;98696.23;1728336;83;20111;-75
2022/07/11 04:37:23;;;;;;;;;;;;;;;14.86;96.31;98690.56;1728357;83;21104;-75
2022/07/11 04:39:49;;;;;;;;;;;;;;;14.90;96.13;98687.88;1727637;83;20103;-75
2022/07/11 04:42:15;;;;;;;;;;;;;;;14.93;95.53;98682.41;1744836;82;20152;-76
2022/07/11 04:44:42;;;;;;;;;;;;;;;14.98;95.88;98679.36;1735599;82;20214;-76
2022/07/11 04:47:09;;;;;;;;;;;;;;;15.05;95.80;98684.98;1754868;81;20461;-76
2022/07/11 04:49:37;;;;;;;;;;;;;;;15.12;95.41;98690.66;1729659;82;21148;-76
2022/07/11 04:52:05;;;;;;;;;;;;;;;15.15;95.02;98687.73;1754998;82;20146;-76
2022/07/11 04:54:31;;;;;;;;;;;;;;;15.18;94.74;98686.42;1754537;81;20083;-76
2022/07/11 04:56:57;;;;;;;;;;;;;;;15.24;94.97;98692.45;1755142;82;20094;-77
2022/07/11 04:59:24;;;;;;;;;;;;;;;15.33;94.18;98694.98;1755170;82;20163;-77
2022/07/11 05:01:51;;;;;;;;;;;;;;;15.39;93.33;98696.27;1754900;82;21540;-74
2022/07/11 05:04:17;;;;;;;;;;;;;;;15.44;93.42;98687.09;1755130;82;20094;-73
2022/07/11 05:06:43;;;;;;;;;;;;;;;15.61;93.32;98689.15;1754929;82;20161;-74
2022/07/11 05:09:11;;;;;;;;;;;;;;;15.76;92.66;98694.55;1754842;82;20099;-74
2022/07/11 05:11:37;;;;;;;;;;;;;;;15.90;92.03;98691.22;1755154;82;20430;-75
2022/07/11 05:14:03;;;;;;;;;;;;;;;16.07;91.73;98691.28;1754885;82;21116;-74
2022/07/11 05:16:30;;;;;;;;;;;;;;;16.22;90.46;98693.05;1754818;82;20082;-75
2022/07/11 05:18:57;;;;;;;;;;;;;;;16.38;90.15;98690.12;1754888;82;20107;-74
2022/07/11 05:21:23;;;;;;;;;;;;;;;16.54;89.60;98692.12;1754890;81;20158;-75
2022/07/11 05:23:50;;;;;;;;;;;;;;;16.68;87.73;98688.77;1754921;82;20446;-74
2022/07/11 05:26:16;;;;;;;;;;;;;;;16.75;86.28;98684.08;1755209;82;21097;-74
2022/07/11 05:28:43;;;;;;;;;;;;;;;16.81;85.51;98690.09;1729441;82;20432;-75
2022/07/11 05:31:10;;;;;;;;;;;;;;;16.80;84.75;98691.27;1754920;82;20082;-76
2022/07/11 05:33:37;;;;;;;;;;;;;;;16.78;85.41;98693.02;1755120;82;20110;-74
2022/07/11 05:36:04;;;;;;;;;;;;;;;16.82;84.88;98688.91;1754870;81;20477;-76
2022/07/11 05:38:30;;;;;;;;;;;;;;;16.91;85.36;98693.58;1754829;82;21168;-75
2022/07/11 05:40:58;;;;;;;;;;;;;;;17.01;84.25;98695.67;1755025;81;20162;-76
2022/07/11 05:43:25;;;;;;;;;;;;;;;17.12;84.79;98689.66;1744255;81;20087;-75
2022/07/11 05:45:52;;;;;;;;;;;;;;;17.30;84.37;98690.44;1744506;82;20177;-76
2022/07/11 05:48:19;;;;;;;;;;;;;;;17.48;83.70;98684.45;1744596;82;20095;-74
2022/07/11 05:50:45;;;;;;;;;;;;;;;17.60;81.26;98685.55;1744435;82;21113;-75
2022/07/11 05:53:13;;;;;;;;;;;;;;;17.67;80.43;98692.58;1744373;81;20083;-75
2022/07/11 05:55:39;;;;;;;;;;;;;;;17.78;80.29;98682.36;1744866;82;20095;-76
2022/07/11 05:58:06;;;;;;;;;;;;;;;17.89;80.17;98687.20;1744499;82;20095;-74
2022/07/11 06:00:33;;;;;;;;;;;;;;;18.00;79.43;98683.89;1744588;81;20162;-76
2022/07/11 06:03:00;;;;;;;;;;;;;;;18.10;78.14;98683.97;1744826;82;22183;-73
2022/07/11 06:05:26;;;;;;;;;;;;;;;18.17;77.47;98682.42;1744438;81;20095;-75
2022/07/11 06:10:39;;;;;;;;;;;;;;;18.32;76.50;98687.67;1744539;82;20107;-74
2022/07/11 06:13:06;;;;;;;;;;;;;;;18.30;76.61;98690.05;1744432;82;20091;-74
2022/07/11 06:15:32;;;;;;;;;;;;;;;18.26;76.06;98688.43;1744744;82;21750;-74
2022/07/11 06:18:00;;;;;;;;;;;;;;;18.24;76.38;98691.59;1744440;81;20444;-73
2022/07/11 06:20:26;;;;;;;;;;;;;;;18.23;76.40;98681.67;1744468;82;20084;-73
2022/07/11 06:22:53;;;;;;;;;;;;;;;18.34;76.53;98685.31;1744803;82;20438;-76
2022/07/11 06:25:19;;;;;;;;;;;;;;;18.55;77.34;98686.58;1744498;82;20135;-73
2022/07/11 06:27:46;;;;;;;;;;;;;;;18.80;75.98;98681.97;1735532;81;21201;-92
2022/07/11 06:30:12;;;;;;;;;;;;;;;18.99;76.46;98687.80;1721919;82;20448;-86
2022/07/11 06:32:39;;;;;;;;;;;;;;;19.20;76.02;98684.25;1714948;83;20121;-82
2022/07/11 06:35:07;;;;;;;;;;;;;;;19.37;74.18;98684.89;1714836;83;20404;-74
2022/07/11 06:37:34;;;;;;;;;;;;;;;19.54;73.37;98681.96;1714965;83;20156;-74
2022/07/11 06:40:00;;;;;;;;;;;;;;;19.76;73.19;98684.33;1714891;83;21769;-73
2022/07/11 06:42:26;;;;;;;;;;;;;;;19.96;71.01;98689.50;1707312;83;20140;-75
2022/07/11 06:44:55;;;;;;;;;;;;;;;20.03;70.59;98683.33;1715562;83;20186;-77
2022/07/11 06:47:21;;;;;;;;;;;;;;;20.03;70.50;98690.89;1727982;83;20171;-76
2022/07/11 06:49:47;;;;;;;;;;;;;;;20.13;71.02;98685.11;1728200;82;20441;-75
2022/07/11 06:52:15;;;;;;;;;;;;;;;20.37;71.72;98680.86;1728151;83;21154;-74
2022/07/11 06:54:42;;;;;;;;;;;;;;;20.62;69.61;98673.84;1728110;83;20075;-73
2022/07/11 06:57:09;;;;;;;;;;;;;;;20.74;68.22;98675.41;1728167;83;20426;-74
2022/07/11 06:59:35;;;;;;;;;;;;;;;20.81;67.51;98671.76;1727635;83;20091;-75
2022/07/11 07:02:01;;;;;;;;;;;;;;;20.86;69.67;98679.70;1728051;83;20119;-75
2022/07/11 07:04:29;;;;;;;;;;;;;;;21.01;67.41;98666.68;1728149;82;21510;-74
2022/07/11 07:06:55;;;;;;;;;;;;;;;21.13;66.43;98675.79;1728192;82;20087;-74
2022/07/11 07:09:22;;;;;;;;;;;;;;;21.09;66.15;98672.42;1727368;83;20091;-75
2022/07/11 07:11:48;;;;;;;;;;;;;;;21.08;66.07;98675.61;1727060;82;20179;-76
2022/07/11 07:14:15;;;;;;;;;;;;;;;21.13;66.72;98674.39;1728386;83;20091;-71
2022/07/11 07:16:41;;;;;;;;;;;;;;;21.21;66.56;98667.57;1728097;83;21157;-72
2022/07/11 07:19:11;;;;;;;;;;;;;;;21.32;66.06;98666.94;1728115;83;20091;-71
2022/07/11 07:21:38;;;;;;;;;;;;;;;21.38;63.59;98666.06;1728206;83;20471;-72
2022/07/11 07:24:05;;;;;;;;;;;;;;;21.31;65.41;98667.53;1728124;83;20099;-71
2022/07/11 07:26:32;;;;;;;;;;;;;;;21.43;66.14;98665.63;1728127;83;20083;-72
2022/07/11 07:28:59;;;;;;;;;;;;;;;21.68;67.00;98665.45;1728085;82;21989;-74
2022/07/11 07:31:25;;;;;;;;;;;;;;;21.98;65.35;98663.38;1727962;83;20095;-73
2022/07/11 07:33:53;;;;;;;;;;;;;;;22.16;64.13;98659.05;1728097;82;20165;-73
2022/07/11 07:36:19;;;;;;;;;;;;;;;22.24;63.21;98663.36;1728389;83;20156;-73
2022/07/11 07:38:49;;;;;;;;;;;;;;;22.28;65.44;98664.72;1728432;83;20075;-74
2022/07/11 07:41:16;;;;;;;;;;;;;;;22.38;63.77;98666.00;1728068;83;21813;-71
2022/07/11 07:43:44;;;;;;;;;;;;;;;22.57;62.27;98671.56;1707655;83;20457;-72
2022/07/11 07:46:11;;;;;;;;;;;;;;;22.68;61.94;98669.43;1707517;83;20075;-68
2022/07/11 07:48:40;;;;;;;;;;;;;;;22.67;61.95;98655.25;1728118;83;20256;-70
2022/07/11 07:51:06;;;;;;;;;;;;;;;22.71;62.33;98663.61;1728049;83;20190;-69
2022/07/11 07:53:33;;;;;;;;;;;;;;;22.88;61.67;98666.03;1728124;83;21543;-71
2022/07/11 07:55:59;;;;;;;;;;;;;;;22.98;60.64;98663.09;1727980;83;20418;-76
2022/07/11 07:58:27;;;;;;;;;;;;;;;23.01;60.89;98665.66;1727909;82;20099;-71
2022/07/11 08:03:38;;;;;;;;;;;;;;;23.14;59.96;98670.84;1728060;83;20115;-70
2022/07/11 08:06:05;;;;;;;;;;;;;;;23.08;59.67;98666.97;1728348;83;21089;-69
2022/07/11 08:08:33;;;;;;;;;;;;;;;23.08;59.16;98665.56;1728051;82;20407;-70
2022/07/11 08:11:01;;;;;;;;;;;;;;;23.13;57.53;98657.27;1728396;83;20095;-70
2022/07/11 08:13:29;;;;;;;;;;;;;;;23.06;58.92;98655.39;1728051;83;20122;-70
2022/07/11 08:15:55;;;;;;;;;;;;;;;23.02;58.85;98654.05;1728114;83;20441;-70
2022/07/11 08:18:22;;;;;;;;;;;;;;;22.84;58.43;98655.48;1728110;82;21127;-71
2022/07/11 08:20:48;;;;;;;;;;;;;;;22.57;59.83;98658.18;1728286;82;20122;-70
2022/07/11 08:23:14;;;;;;;;;;;;;;;22.48;61.22;98657.91;1728038;82;20127;-70
2022/07/11 08:25:41;;;;;;;;;;;;;;;22.54;59.12;98661.81;1727183;83;20615;-70
2022/07/11 08:28:07;;;;;;;;;;;;;;;22.60;58.35;98662.33;1717700;83;20117;-70
2022/07/11 08:30:33;;;;;;;;;;;;;;;22.81;58.82;98658.52;1716946;83;21764;-71
2022/07/11 08:33:00;;;;;;;;;;;;;;;23.16;57.12;98651.63;1709421;83;20147;-72
2022/07/11 08:35:27;;;;;;;;;;;;;;;23.37;57.71;98657.52;1726150;83;20135;-69
2022/07/11 08:37:54;;;;;;;;;;;;;;;23.64;55.40;98656.94;1727242;81;20174;-73
2022/07/11 08:40:21;;;;;;;;;;;;;;;23.95;55.98;98649.80;1727672;82;20098;-75
2022/07/11 08:42:47;;;;;;;;;;;;;;;24.46;55.35;98644.86;1727776;82;21595;-72
2022/07/11 08:45:14;;;;;;;;;;;;;;;24.95;55.28;98643.80;1726730;83;20461;-73
2022/07/11 08:47:43;;;;;;;;;;;;;;;25.29;53.26;98648.31;1725847;82;20151;-72
2022/07/11 08:50:10;;;;;;;;;;;;;;;25.14;51.06;98654.86;1708472;83;20448;-72
2022/07/11 08:52:37;;;;;;;;;;;;;;;24.70;52.41;98649.18;1727162;82;20457;-81
2022/07/11 08:55:11;;;;;;;;;;;;;;;24.21;53.04;98660.14;1725935;82;21536;-76
2022/07/11 08:57:36;;;;;;;;;;;;;;;23.63;54.41;98642.74;1726995;83;20155;-74
2022/07/11 09:00:05;;;;;;;;;;;;;;;23.07;55.30;98654.18;1726649;82;20130;-81
2022/07/11 09:02:32;;;;;;;;;;;;;;;22.54;56.84;98659.81;1727241;82;20114;-79
2022/07/11 09:05:00;;;;;;;;;;;;;;;22.08;58.08;98654.13;1707349;83;20091;-80
2022/07/11 09:07:28;;;;;;;;;;;;;;;21.73;59.20;98651.05;1727602;82;21210;-77
2022/07/11 09:09:55;;;;;;;;;;;;;;;21.45;60.20;98659.64;1727809;83;20441;-75
2022/07/11 09:12:21;;;;;;;;;;;;;;;21.25;60.82;98655.22;1727741;83;20083;-76
2022/07/11 09:14:49;;;;;;;;;;;;;;;21.09;61.17;98660.46;1727658;83;20413;-74
2022/07/11 09:17:24;;;;;;;;;;;;;;;20.96;62.53;98660.73;1727575;82;20106;-77
2022/07/11 09:19:52;;;;;;;;;;;;;;;20.86;65.13;98665.76;1727683;82;21258;-75
2022/07/11 09:28:01;;;;;;;;;;;;;;;20.51;70.07;98666.12;1727499;82;20128;-78
2022/07/11 09:30:29;;;;;;;;;;;;;;;20.40;71.50;98665.35;1727669;82;20174;-78
2022/07/11 09:32:59;;;;;;;;;;;;;;;20.29;72.28;98669.53;1728058;83;21097;-76
2022/07/11 09:35:28;;;;;;;;;;;;;;;20.27;73.60;98659.37;1726879;81;20398;-79
2022/07/11 09:37:55;;;;;;;;;;;;;;;20.32;72.74;98667.93;1727083;82;20135;-76
2022/07/11 09:40:22;;;;;;;;;;;;;;;20.35;74.99;98663.74;1727802;83;20095;-78
2022/07/11 09:42:50;;;;;;;;;;;;;;;20.35;77.28;98665.13;1733657;82;20414;-76
2022/07/11 09:45:18;;;;;;;;;;;;;;;20.28;78.47;98661.57;1754470;82;21788;-79
2022/07/11 09:47:47;;;;;;;;;;;;;;;20.20;80.75;98663.61;1754535;82;20075;-75
2022/07/11 09:50:29;;;;;;;;;;;;;;;20.17;81.44;98668.59;1754581;81;20190;-75
2022/07/11 09:53:05;;;;;;;;;;;;;;;20.19;81.50;98666.80;1723304;82;20436;-76
2022/07/11 09:55:36;;;;;;;;;;;;;;;20.18;82.40;98661.82;1724510;83;20431;-76
2022/07/11 09:58:06;;;;;;;;;;;;;;;20.08;83.82;98666.81;1724296;83;21172;-76
2022/07/11 10:00:34;;;;;;;;;;;;;;;19.94;84.29;98659.86;1732177;82;20106;-73
2022/07/11 10:03:00;;;;;;;;;;;;;;;19.77;81.63;98662.85;1724770;83;20141;-74
2022/07/11 10:05:27;;;;;;;;;;;;;;;19.63;80.32;98666.46;1724525;83;20435;-74
2022/07/11 10:07:55;;;;;;;;;;;;;;;19.53;80.16;98665.06;1723157;82;20132;-73
2022/07/11 10:10:22;;;;;;;;;;;;;;;19.39;80.48;98656.06;1741650;82;21771;-76
2022/07/11 10:12:49;;;;;;;;;;;;;;;19.28;80.65;98660.22;1725089;81;20432;-73
2022/07/11 10:15:18;;;;;;;;;;;;;;;19.23;82.41;98670.95;1699401;83;20148;-73
2022/07/11 10:18:06;;;;;;;;;;;;;;;19.17;82.30;98683.05;1700316;83;20132;-75
2022/07/11 10:20:45;;;;;;;;;;;;;;;19.09;77.79;98682.83;1739909;82;20070;-73
2022/07/11 10:23:36;;;;;;;;;;;;;;;18.92;76.32;98687.17;1754964;82;21164;-86
2022/07/11 10:26:29;;;;;;;;;;;;;;;18.77;77.18;98685.53;1753871;82;20414;-72
2022/07/11 10:28:59;;;;;;;;;;;;;;;18.58;74.78;98683.02;1754753;82;20107;-72
2022/07/11 10:31:30;;;;;;;;;;;;;;;18.41;74.97;98688.13;1754612;82;20437;-72
2022/07/11 10:34:05;;;;;;;;;;;;;;;18.29;72.04;98693.21;1755053;81;20449;-74
2022/07/11 10:36:34;;;;;;;;;;;;;;;18.20;71.43;98693.55;1754682;82;21224;-73
2022/07/11 10:39:24;;;;;;;;;;;;;;;18.14;71.07;98690.93;1754932;81;20091;-72
2022/07/11 10:41:47;;;;;;;;;;;;;;;18.11;71.15;98700.03;1729268;82;20115;-73
2022/07/11 10:44:14;;;;;;;;;;;;;;;18.04;72.25;98698.00;1754818;82;20542;-75
2022/07/11 10:46:40;;;;;;;;;;;;;;;18.03;72.19;98694.23;1754914;82;20095;-79
2022/07/11 10:49:18;;;;;;;;;;;;;;;18.03;73.72;98692.83;1754457;82;21137;-77
2022/07/11 10:52:04;;;;;;;;;;;;;;;18.03;73.75;98693.63;1754871;82;20114;-76
2022/07/11 10:54:44;;;;;;;;;;;;;;;18.02;73.13;98697.59;1754982;82;20143;-78
2022/07/11 10:57:34;;;;;;;;;;;;;;;18.01;74.57;98706.31;1754756;82;20095;-76
2022/07/11 11:00:08;;;;;;;;;;;;;;;18.00;77.12;98708.28;1754893;82;20418;-77
2022/07/11 11:02:56;;;;;;;;;;;;;;;18.01;78.22;98706.31;1755087;82;21075;-85
2022/07/11 11:05:48;;;;;;;;;;;;;;;18.03;80.72;98708.91;1754766;82;20433;-84
2022/07/11 11:08:37;;;;;;;;;;;;;;;18.04;80.91;98712.48;1755024;82;20095;-88
2022/07/11 11:11:06;;;;;;;;;;;;;;;18.05;82.50;98716.27;1754998;82;20095;-84
2022/07/11 11:13:37;;;;;;;;;;;;;;;18.04;83.16;98720.22;1754357;81;20082;-83
2022/07/11 11:16:19;;;;;;;;;;;;;;;18.00;83.08;98722.17;1754735;82;21048;-88
2022/07/11 11:18:46;;;;;;;;;;;;;;;17.99;83.34;98726.13;1754792;82;20083;-85
2022/07/11 11:21:13;;;;;;;;;;;;;;;17.97;82.20;98733.25;1754681;82;20082;-79
2022/07/11 11:23:41;;;;;;;;;;;;;;;17.96;82.27;98738.59;1754695;82;20470;-73
2022/07/11 11:26:12;;;;;;;;;;;;;;;17.93;82.01;98739.37;1754843;82;20110;-77
2022/07/11 11:28:40;;;;;;;;;;;;;;;17.92;81.50;98746.09;1754389;82;21232;-72
2022/07/11 11:31:07;;;;;;;;;;;;;;;17.88;81.88;98745.30;1752130;82;20505;-76
2022/07/11 11:33:36;;;;;;;;;;;;;;;17.88;82.51;98753.63;1754686;82;20150;-75
2022/07/11 11:36:05;;;;;;;;;;;;;;;17.87;81.34;98752.83;1753792;82;20086;-72
2022/07/11 11:38:38;;;;;;;;;;;;;;;17.85;81.32;98759.95;1755180;81;20142;-77
2022/07/11 11:41:07;;;;;;;;;;;;;;;17.82;82.98;98768.45;1754429;81;21258;-77
2022/07/11 11:43:37;;;;;;;;;;;;;;;17.76;83.53;98762.45;1751397;81;20115;-80
2022/07/11 11:46:03;;;;;;;;;;;;;;;17.67;84.62;98774.45;1744189;81;20095;-76
2022/07/11 11:48:34;;;;;;;;;;;;;;;17.57;85.06;98784.03;1744555;81;20107;-72
2022/07/11 11:51:05;;;;;;;;;;;;;;;17.46;86.08;98791.64;1744205;82;20083;-73
2022/07/11 11:53:41;;;;;;;;;;;;;;;17.33;85.57;98791.69;1744449;81;21165;-74
2022/07/11 11:56:15;;;;;;;;;;;;;;;17.19;85.62;98799.08;1744562;82;20118;-76
2022/07/11 11:58:43;;;;;;;;;;;;;;;17.02;87.21;98815.11;1744355;81;20091;-78
2022/07/11 12:01:11;;;;;;;;;;;;;;;16.92;88.09;98817.15;1744485;82;20118;-78
2022/07/11 12:03:55;;;;;;;;;;;;;;;16.85;89.07;98814.28;1744363;81;20099;-77
2022/07/11 12:06:23;;;;;;;;;;;;;;;16.72;90.00;98824.81;1744194;82;21126;-78
2022/07/11 12:08:50;;;;;;;;;;;;;;;16.59;91.10;98819.25;1744014;82;20095;-78
2022/07/11 12:11:17;;;;;;;;;;;;;;;16.48;93.01;98807.20;1744251;82;20083;-77
2022/07/11 12:13:44;;;;;;;;;;;;;;;16.35;94.47;98812.14;1744209;82;20130;-79
2022/07/11 12:19:00;;;;;;;;;;;;;;;16.06;96.42;98814.26;1744347;82;21862;-80
2022/07/11 12:21:30;;;;;;;;;;;;;;;15.98;98.19;98809.19;1743168;82;20084;-76
2022/07/11 12:23:59;;;;;;;;;;;;;;;15.92;98.19;98815.39;1743023;82;20087;-77
2022/07/11 12:26:29;;;;;;;;;;;;;;;15.84;98.74;98815.85;1743956;82;20146;-78
2022/07/11 12:29:08;;;;;;;;;;;;;;;15.75;98.62;98820.23;1714647;83;20475;-84
2022/07/11 12:31:45;;;;;;;;;;;;;;;15.69;99.13;98827.23;1707951;83;21076;-83
2022/07/11 12:34:11;;;;;;;;;;;;;;;15.66;99.86;98823.83;1701420;83;20150;-79
2022/07/11 12:36:39;;;;;;;;;;;;;;;15.61;100.00;98818.59;1678296;85;20134;-72
2022/07/11 12:39:06;;;;;;;;;;;;;;;15.57;100.00;98826.05;1678099;85;20122;-72
2022/07/11 12:41:34;;;;;;;;;;;;;;;15.52;100.00;98828.50;1729707;82;20140;-71
2022/07/11 12:46:48;;;;;;;;;;;;;;;15.49;100.00;98851.94;1742729;82;20087;-74
2022/07/11 12:49:15;;;;;;;;;;;;;;;15.49;100.00;98846.41;1742364;82;20130;-75
2022/07/11 12:51:45;;;;;;;;;;;;;;;15.47;100.00;98850.13;1742649;82;20127;-81
2022/07/11 12:54:14;;;;;;;;;;;;;;;15.44;100.00;98855.80;1742349;82;20172;-75
2022/07/11 12:56:41;;;;;;;;;;;;;;;15.42;100.00;98860.09;1742312;82;21146;-75
2022/07/11 12:59:11;;;;;;;;;;;;;;;15.41;100.00;98861.26;1742557;82;20430;-75
2022/07/11 13:01:39;;;;;;;;;;;;;;;15.40;100.00;98872.10;1741401;82;20132;-76
2022/07/11 13:04:06;;;;;;;;;;;;;;;15.38;100.00;98868.31;1742501;82;20179;-75